sensor_id;sensor_type;location;lat;lon;timestamp;P1;durP1;ratioP1;P2;durP2;ratioP2
40116;SDS011;25829;50.228;18.936;2023-07-31T00:00:52;4.72;;;2.85;;
40116;SDS011;25829;50.228;18.936;2023-07-31T00:03:53;3.22;;;2.80;;
40116;SDS011;25829;50.228;18.936;2023-07-31T00:10:20;3.38;;;2.72;;
40116;SDS011;25829;50.228;18.936;2023-07-31T00:13:24;3.08;;;2.65;;
40116;SDS011;25829;50.228;18.936;2023-07-31T00:16:25;5.47;;;3.13;;
40116;SDS011;25829;50.228;18.936;2023-07-31T00:19:26;4.18;;;2.83;;
40116;SDS011;25829;50.228;18.936;2023-07-31T00:22:27;3.42;;;2.80;;
40116;SDS011;25829;50.228;18.936;2023-07-31T00:25:28;3.85;;;2.67;;
40116;SDS011;25829;50.228;18.936;2023-07-31T00:28:29;3.35;;;2.85;;
40116;SDS011;25829;50.228;18.936;2023-07-31T00:31:30;3.30;;;2.90;;
40116;SDS011;25829;50.228;18.936;2023-07-31T00:34:31;3.67;;;3.10;;
40116;SDS011;25829;50.228;18.936;2023-07-31T00:37:31;6.07;;;3.08;;
40116;SDS011;25829;50.228;18.936;2023-07-31T00:40:41;4.47;;;3.15;;
40116;SDS011;25829;50.228;18.936;2023-07-31T00:43:45;3.95;;;3.08;;
40116;SDS011;25829;50.228;18.936;2023-07-31T00:46:46;3.90;;;3.10;;
40116;SDS011;25829;50.228;18.936;2023-07-31T00:53:18;3.45;;;2.75;;
40116;SDS011;25829;50.228;18.936;2023-07-31T01:00:52;3.40;;;3.10;;
40116;SDS011;25829;50.228;18.936;2023-07-31T01:03:54;10.13;;;3.17;;
40116;SDS011;25829;50.228;18.936;2023-07-31T01:07:08;5.07;;;2.90;;
40116;SDS011;25829;50.228;18.936;2023-07-31T01:10:21;4.55;;;3.10;;
40116;SDS011;25829;50.228;18.936;2023-07-31T01:13:26;4.03;;;2.78;;
40116;SDS011;25829;50.228;18.936;2023-07-31T01:16:27;4.32;;;3.00;;
40116;SDS011;25829;50.228;18.936;2023-07-31T01:19:28;3.58;;;3.08;;
40116;SDS011;25829;50.228;18.936;2023-07-31T01:22:49;3.40;;;2.83;;
40116;SDS011;25829;50.228;18.936;2023-07-31T01:29:24;5.53;;;3.20;;
40116;SDS011;25829;50.228;18.936;2023-07-31T01:32:38;3.13;;;2.58;;
40116;SDS011;25829;50.228;18.936;2023-07-31T01:35:45;4.10;;;2.55;;
40116;SDS011;25829;50.228;18.936;2023-07-31T01:38:49;2.92;;;2.50;;
40116;SDS011;25829;50.228;18.936;2023-07-31T01:42:00;3.95;;;2.38;;
40116;SDS011;25829;50.228;18.936;2023-07-31T01:45:14;2.90;;;2.65;;
40116;SDS011;25829;50.228;18.936;2023-07-31T02:22:24;6.10;;;2.80;;
40116;SDS011;25829;50.228;18.936;2023-07-31T02:25:25;2.92;;;2.40;;
40116;SDS011;25829;50.228;18.936;2023-07-31T02:28:26;4.05;;;2.13;;
40116;SDS011;25829;50.228;18.936;2023-07-31T02:31:39;4.20;;;2.42;;
40116;SDS011;25829;50.228;18.936;2023-07-31T02:34:39;5.55;;;2.75;;
40116;SDS011;25829;50.228;18.936;2023-07-31T02:37:43;4.90;;;2.50;;
40116;SDS011;25829;50.228;18.936;2023-07-31T02:40:44;4.47;;;2.67;;
40116;SDS011;25829;50.228;18.936;2023-07-31T02:43:51;2.75;;;2.05;;
40116;SDS011;25829;50.228;18.936;2023-07-31T02:46:52;2.20;;;1.90;;
40116;SDS011;25829;50.228;18.936;2023-07-31T02:49:59;3.70;;;2.15;;
40116;SDS011;25829;50.228;18.936;2023-07-31T02:53:06;2.55;;;2.35;;
40116;SDS011;25829;50.228;18.936;2023-07-31T02:56:07;2.20;;;2.00;;
40116;SDS011;25829;50.228;18.936;2023-07-31T02:59:07;3.47;;;2.20;;
40116;SDS011;25829;50.228;18.936;2023-07-31T03:02:11;2.30;;;1.77;;
40116;SDS011;25829;50.228;18.936;2023-07-31T03:05:13;4.18;;;2.30;;
40116;SDS011;25829;50.228;18.936;2023-07-31T03:08:17;1.83;;;1.73;;
40116;SDS011;25829;50.228;18.936;2023-07-31T03:11:18;2.30;;;1.90;;
40116;SDS011;25829;50.228;18.936;2023-07-31T03:14:25;3.75;;;1.92;;
40116;SDS011;25829;50.228;18.936;2023-07-31T03:17:41;2.85;;;2.20;;
40116;SDS011;25829;50.228;18.936;2023-07-31T03:20:45;4.07;;;2.20;;
40116;SDS011;25829;50.228;18.936;2023-07-31T03:23:46;2.13;;;1.92;;
40116;SDS011;25829;50.228;18.936;2023-07-31T03:26:46;2.35;;;1.90;;
40116;SDS011;25829;50.228;18.936;2023-07-31T03:29:59;3.50;;;2.28;;
40116;SDS011;25829;50.228;18.936;2023-07-31T03:33:07;2.90;;;2.28;;
40116;SDS011;25829;50.228;18.936;2023-07-31T03:36:08;3.33;;;1.98;;
40116;SDS011;25829;50.228;18.936;2023-07-31T03:39:15;3.95;;;2.30;;
40116;SDS011;25829;50.228;18.936;2023-07-31T03:42:16;2.30;;;2.10;;
40116;SDS011;25829;50.228;18.936;2023-07-31T03:45:16;5.72;;;2.25;;
40116;SDS011;25829;50.228;18.936;2023-07-31T03:48:26;4.85;;;2.10;;
40116;SDS011;25829;50.228;18.936;2023-07-31T03:51:34;3.42;;;1.90;;
40116;SDS011;25829;50.228;18.936;2023-07-31T03:54:35;2.80;;;1.90;;
40116;SDS011;25829;50.228;18.936;2023-07-31T03:57:36;4.38;;;1.98;;
40116;SDS011;25829;50.228;18.936;2023-07-31T04:00:46;3.25;;;2.10;;
40116;SDS011;25829;50.228;18.936;2023-07-31T04:03:50;4.68;;;2.10;;
40116;SDS011;25829;50.228;18.936;2023-07-31T04:06:52;2.17;;;1.77;;
40116;SDS011;25829;50.228;18.936;2023-07-31T04:09:53;2.25;;;1.80;;
40116;SDS011;25829;50.228;18.936;2023-07-31T04:12:57;2.85;;;2.10;;
40116;SDS011;25829;50.228;18.936;2023-07-31T04:15:57;2.75;;;2.13;;
40116;SDS011;25829;50.228;18.936;2023-07-31T04:18:58;1.85;;;1.67;;
40116;SDS011;25829;50.228;18.936;2023-07-31T04:22:05;3.65;;;2.10;;
40116;SDS011;25829;50.228;18.936;2023-07-31T04:25:06;3.17;;;1.92;;
40116;SDS011;25829;50.228;18.936;2023-07-31T04:28:12;3.33;;;2.00;;
40116;SDS011;25829;50.228;18.936;2023-07-31T04:31:13;3.35;;;2.05;;
40116;SDS011;25829;50.228;18.936;2023-07-31T04:34:16;2.45;;;1.92;;
40116;SDS011;25829;50.228;18.936;2023-07-31T04:37:17;5.18;;;2.13;;
40116;SDS011;25829;50.228;18.936;2023-07-31T04:40:18;2.42;;;1.90;;
40116;SDS011;25829;50.228;18.936;2023-07-31T04:43:19;2.20;;;2.00;;
40116;SDS011;25829;50.228;18.936;2023-07-31T04:46:20;6.18;;;2.20;;
40116;SDS011;25829;50.228;18.936;2023-07-31T04:49:23;3.78;;;1.95;;
40116;SDS011;25829;50.228;18.936;2023-07-31T04:52:24;4.05;;;2.20;;
40116;SDS011;25829;50.228;18.936;2023-07-31T04:55:25;5.22;;;2.40;;
40116;SDS011;25829;50.228;18.936;2023-07-31T04:58:26;3.17;;;2.03;;
40116;SDS011;25829;50.228;18.936;2023-07-31T05:01:27;2.92;;;1.90;;
40116;SDS011;25829;50.228;18.936;2023-07-31T05:04:28;4.57;;;2.28;;
40116;SDS011;25829;50.228;18.936;2023-07-31T05:07:28;6.75;;;2.22;;
40116;SDS011;25829;50.228;18.936;2023-07-31T05:10:33;2.35;;;2.13;;
40116;SDS011;25829;50.228;18.936;2023-07-31T05:13:34;4.05;;;2.17;;
40116;SDS011;25829;50.228;18.936;2023-07-31T05:23:25;6.35;;;2.15;;
40116;SDS011;25829;50.228;18.936;2023-07-31T05:26:26;2.30;;;2.10;;
40116;SDS011;25829;50.228;18.936;2023-07-31T05:29:26;2.60;;;2.00;;
40116;SDS011;25829;50.228;18.936;2023-07-31T05:32:27;2.65;;;2.05;;
40116;SDS011;25829;50.228;18.936;2023-07-31T05:35:28;3.03;;;2.15;;
40116;SDS011;25829;50.228;18.936;2023-07-31T05:38:29;4.32;;;2.20;;
40116;SDS011;25829;50.228;18.936;2023-07-31T05:41:30;3.88;;;1.80;;
40116;SDS011;25829;50.228;18.936;2023-07-31T05:44:31;3.67;;;2.38;;
40116;SDS011;25829;50.228;18.936;2023-07-31T05:47:31;3.15;;;2.20;;
40116;SDS011;25829;50.228;18.936;2023-07-31T05:50:32;4.10;;;1.90;;
40116;SDS011;25829;50.228;18.936;2023-07-31T05:53:33;2.90;;;2.00;;
40116;SDS011;25829;50.228;18.936;2023-07-31T05:56:34;5.25;;;2.25;;
40116;SDS011;25829;50.228;18.936;2023-07-31T05:59:35;2.58;;;1.73;;
40116;SDS011;25829;50.228;18.936;2023-07-31T06:02:38;8.20;;;2.03;;
40116;SDS011;25829;50.228;18.936;2023-07-31T06:05:39;5.82;;;4.85;;
40116;SDS011;25829;50.228;18.936;2023-07-31T06:08:39;4.03;;;1.95;;
40116;SDS011;25829;50.228;18.936;2023-07-31T06:11:40;4.60;;;1.90;;
40116;SDS011;25829;50.228;18.936;2023-07-31T06:14:41;1.95;;;1.75;;
40116;SDS011;25829;50.228;18.936;2023-07-31T06:17:42;3.10;;;2.30;;
40116;SDS011;25829;50.228;18.936;2023-07-31T06:20:43;2.00;;;1.73;;
40116;SDS011;25829;50.228;18.936;2023-07-31T06:23:53;2.90;;;2.30;;
40116;SDS011;25829;50.228;18.936;2023-07-31T06:40:32;6.00;;;1.73;;
40116;SDS011;25829;50.228;18.936;2023-07-31T07:04:49;3.42;;;1.90;;
40116;SDS011;25829;50.228;18.936;2023-07-31T07:11:22;4.50;;;2.13;;
40116;SDS011;25829;50.228;18.936;2023-07-31T07:14:26;3.72;;;1.70;;
40116;SDS011;25829;50.228;18.936;2023-07-31T07:17:27;3.47;;;2.00;;
40116;SDS011;25829;50.228;18.936;2023-07-31T07:20:30;2.88;;;1.50;;
40116;SDS011;25829;50.228;18.936;2023-07-31T07:23:31;3.90;;;1.98;;
40116;SDS011;25829;50.228;18.936;2023-07-31T07:26:32;3.05;;;1.90;;
40116;SDS011;25829;50.228;18.936;2023-07-31T07:29:46;5.05;;;1.85;;
40116;SDS011;25829;50.228;18.936;2023-07-31T07:36:01;4.20;;;1.70;;
40116;SDS011;25829;50.228;18.936;2023-07-31T07:39:05;5.13;;;2.05;;
40116;SDS011;25829;50.228;18.936;2023-07-31T07:42:06;5.90;;;2.20;;
40116;SDS011;25829;50.228;18.936;2023-07-31T07:45:07;6.35;;;2.58;;
40116;SDS011;25829;50.228;18.936;2023-07-31T07:48:08;5.15;;;2.30;;
40116;SDS011;25829;50.228;18.936;2023-07-31T07:54:48;5.95;;;1.90;;
40116;SDS011;25829;50.228;18.936;2023-07-31T07:57:50;2.97;;;1.90;;
40116;SDS011;25829;50.228;18.936;2023-07-31T08:01:09;4.38;;;2.05;;
40116;SDS011;25829;50.228;18.936;2023-07-31T08:04:16;5.55;;;1.90;;
40116;SDS011;25829;50.228;18.936;2023-07-31T08:07:16;2.72;;;1.80;;
40116;SDS011;25829;50.228;18.936;2023-07-31T08:13:40;3.20;;;1.77;;
40116;SDS011;25829;50.228;18.936;2023-07-31T08:16:41;2.17;;;1.70;;
40116;SDS011;25829;50.228;18.936;2023-07-31T08:19:55;2.42;;;1.83;;
40116;SDS011;25829;50.228;18.936;2023-07-31T08:22:58;5.22;;;1.73;;
40116;SDS011;25829;50.228;18.936;2023-07-31T08:25:59;2.33;;;1.70;;
40116;SDS011;25829;50.228;18.936;2023-07-31T08:29:00;4.68;;;1.70;;
40116;SDS011;25829;50.228;18.936;2023-07-31T08:32:00;2.00;;;1.52;;
40116;SDS011;25829;50.228;18.936;2023-07-31T08:35:01;4.53;;;2.10;;
40116;SDS011;25829;50.228;18.936;2023-07-31T08:38:02;2.00;;;1.70;;
40116;SDS011;25829;50.228;18.936;2023-07-31T08:41:18;4.93;;;1.67;;
40116;SDS011;25829;50.228;18.936;2023-07-31T08:44:19;5.28;;;1.65;;
40116;SDS011;25829;50.228;18.936;2023-07-31T08:47:26;5.30;;;1.92;;
40116;SDS011;25829;50.228;18.936;2023-07-31T08:50:28;2.63;;;1.80;;
40116;SDS011;25829;50.228;18.936;2023-07-31T08:53:29;4.03;;;1.70;;
40116;SDS011;25829;50.228;18.936;2023-07-31T08:56:32;3.28;;;1.70;;
40116;SDS011;25829;50.228;18.936;2023-07-31T08:59:33;3.63;;;2.20;;
40116;SDS011;25829;50.228;18.936;2023-07-31T09:06:22;6.80;;;1.73;;
40116;SDS011;25829;50.228;18.936;2023-07-31T09:09:26;6.40;;;1.80;;
40116;SDS011;25829;50.228;18.936;2023-07-31T09:12:30;2.78;;;1.52;;
40116;SDS011;25829;50.228;18.936;2023-07-31T09:15:32;2.90;;;1.83;;
40116;SDS011;25829;50.228;18.936;2023-07-31T09:22:05;5.32;;;1.70;;
40116;SDS011;25829;50.228;18.936;2023-07-31T09:28:46;5.15;;;1.90;;
40116;SDS011;25829;50.228;18.936;2023-07-31T09:31:47;3.00;;;1.65;;
40116;SDS011;25829;50.228;18.936;2023-07-31T09:34:49;3.78;;;1.77;;
40116;SDS011;25829;50.228;18.936;2023-07-31T09:37:53;3.22;;;1.75;;
40116;SDS011;25829;50.228;18.936;2023-07-31T09:40:58;1.75;;;1.58;;
40116;SDS011;25829;50.228;18.936;2023-07-31T09:43:59;3.17;;;1.40;;
40116;SDS011;25829;50.228;18.936;2023-07-31T09:47:00;5.90;;;1.70;;
40116;SDS011;25829;50.228;18.936;2023-07-31T09:50:01;2.83;;;1.40;;
40116;SDS011;25829;50.228;18.936;2023-07-31T09:53:02;2.58;;;1.55;;
40116;SDS011;25829;50.228;18.936;2023-07-31T09:56:03;5.03;;;1.92;;
40116;SDS011;25829;50.228;18.936;2023-07-31T09:59:06;3.63;;;1.60;;
40116;SDS011;25829;50.228;18.936;2023-07-31T10:02:13;3.25;;;1.75;;
40116;SDS011;25829;50.228;18.936;2023-07-31T10:05:23;3.08;;;1.60;;
40116;SDS011;25829;50.228;18.936;2023-07-31T10:11:38;6.38;;;2.00;;
40116;SDS011;25829;50.228;18.936;2023-07-31T10:15:43;2.65;;;1.52;;
40116;SDS011;25829;50.228;18.936;2023-07-31T10:18:51;2.55;;;1.73;;
40116;SDS011;25829;50.228;18.936;2023-07-31T10:22:03;5.40;;;1.80;;
40116;SDS011;25829;50.228;18.936;2023-07-31T10:25:05;2.20;;;1.73;;
40116;SDS011;25829;50.228;18.936;2023-07-31T10:33:18;3.30;;;1.75;;
40116;SDS011;25829;50.228;18.936;2023-07-31T10:49:04;4.20;;;1.50;;
40116;SDS011;25829;50.228;18.936;2023-07-31T10:52:04;2.72;;;1.85;;
40116;SDS011;25829;50.228;18.936;2023-07-31T10:55:30;3.00;;;1.80;;
40116;SDS011;25829;50.228;18.936;2023-07-31T11:01:56;4.15;;;1.80;;
40116;SDS011;25829;50.228;18.936;2023-07-31T11:05:07;2.33;;;1.58;;
40116;SDS011;25829;50.228;18.936;2023-07-31T11:11:13;1.70;;;1.38;;
40116;SDS011;25829;50.228;18.936;2023-07-31T11:14:18;3.28;;;1.65;;
40116;SDS011;25829;50.228;18.936;2023-07-31T11:17:19;5.35;;;1.77;;
40116;SDS011;25829;50.228;18.936;2023-07-31T11:20:20;3.30;;;1.50;;
40116;SDS011;25829;50.228;18.936;2023-07-31T11:23:21;1.60;;;1.40;;
40116;SDS011;25829;50.228;18.936;2023-07-31T11:30:02;4.80;;;1.80;;
40116;SDS011;25829;50.228;18.936;2023-07-31T11:43:46;3.13;;;1.80;;
40116;SDS011;25829;50.228;18.936;2023-07-31T11:46:47;1.70;;;1.55;;
40116;SDS011;25829;50.228;18.936;2023-07-31T11:49:48;3.22;;;1.58;;
40116;SDS011;25829;50.228;18.936;2023-07-31T11:52:49;4.15;;;1.90;;
40116;SDS011;25829;50.228;18.936;2023-07-31T12:04:20;4.43;;;1.60;;
40116;SDS011;25829;50.228;18.936;2023-07-31T12:10:28;5.22;;;1.60;;
40116;SDS011;25829;50.228;18.936;2023-07-31T12:33:12;2.40;;;1.75;;
40116;SDS011;25829;50.228;18.936;2023-07-31T12:36:18;3.22;;;1.90;;
40116;SDS011;25829;50.228;18.936;2023-07-31T12:42:45;3.38;;;1.45;;
40116;SDS011;25829;50.228;18.936;2023-07-31T12:45:47;3.47;;;1.80;;
40116;SDS011;25829;50.228;18.936;2023-07-31T12:48:48;5.88;;;2.30;;
40116;SDS011;25829;50.228;18.936;2023-07-31T12:51:55;7.15;;;1.40;;
40116;SDS011;25829;50.228;18.936;2023-07-31T12:54:55;4.07;;;1.80;;
40116;SDS011;25829;50.228;18.936;2023-07-31T12:58:00;3.30;;;1.92;;
40116;SDS011;25829;50.228;18.936;2023-07-31T13:01:03;5.13;;;1.63;;
40116;SDS011;25829;50.228;18.936;2023-07-31T13:11:40;1.92;;;1.40;;
40116;SDS011;25829;50.228;18.936;2023-07-31T13:14:41;3.78;;;1.70;;
40116;SDS011;25829;50.228;18.936;2023-07-31T13:17:42;3.30;;;1.60;;
40116;SDS011;25829;50.228;18.936;2023-07-31T13:20:42;3.30;;;1.90;;
40116;SDS011;25829;50.228;18.936;2023-07-31T13:23:45;5.78;;;1.52;;
40116;SDS011;25829;50.228;18.936;2023-07-31T13:26:45;4.25;;;1.95;;
40116;SDS011;25829;50.228;18.936;2023-07-31T13:29:46;1.90;;;1.67;;
40116;SDS011;25829;50.228;18.936;2023-07-31T13:32:51;2.25;;;1.58;;
40116;SDS011;25829;50.228;18.936;2023-07-31T13:35:52;2.75;;;1.83;;
40116;SDS011;25829;50.228;18.936;2023-07-31T13:38:52;3.75;;;1.88;;
40116;SDS011;25829;50.228;18.936;2023-07-31T13:41:54;2.67;;;1.73;;
40116;SDS011;25829;50.228;18.936;2023-07-31T13:48:59;2.70;;;1.77;;
40116;SDS011;25829;50.228;18.936;2023-07-31T14:00:33;1.55;;;1.38;;
40116;SDS011;25829;50.228;18.936;2023-07-31T14:03:35;1.67;;;1.40;;
40116;SDS011;25829;50.228;18.936;2023-07-31T14:13:56;4.72;;;1.45;;
40116;SDS011;25829;50.228;18.936;2023-07-31T14:17:09;2.55;;;1.30;;
40116;SDS011;25829;50.228;18.936;2023-07-31T14:20:14;1.80;;;1.23;;
40116;SDS011;25829;50.228;18.936;2023-07-31T14:23:14;2.05;;;1.30;;
40116;SDS011;25829;50.228;18.936;2023-07-31T14:26:15;3.08;;;1.55;;
40116;SDS011;25829;50.228;18.936;2023-07-31T14:29:17;2.92;;;1.58;;
40116;SDS011;25829;50.228;18.936;2023-07-31T14:32:17;2.92;;;1.60;;
40116;SDS011;25829;50.228;18.936;2023-07-31T14:35:18;3.38;;;1.92;;
40116;SDS011;25829;50.228;18.936;2023-07-31T14:38:19;5.45;;;1.92;;
40116;SDS011;25829;50.228;18.936;2023-07-31T14:41:20;6.90;;;1.67;;
40116;SDS011;25829;50.228;18.936;2023-07-31T14:44:21;3.88;;;2.10;;
40116;SDS011;25829;50.228;18.936;2023-07-31T14:47:22;2.00;;;1.60;;
40116;SDS011;25829;50.228;18.936;2023-07-31T14:50:23;3.10;;;1.70;;
40116;SDS011;25829;50.228;18.936;2023-07-31T14:53:25;2.60;;;1.50;;
40116;SDS011;25829;50.228;18.936;2023-07-31T14:56:26;6.43;;;1.70;;
40116;SDS011;25829;50.228;18.936;2023-07-31T14:59:28;3.65;;;2.00;;
40116;SDS011;25829;50.228;18.936;2023-07-31T15:02:29;2.67;;;1.92;;
40116;SDS011;25829;50.228;18.936;2023-07-31T15:05:29;3.17;;;1.90;;
40116;SDS011;25829;50.228;18.936;2023-07-31T15:08:30;3.00;;;1.58;;
40116;SDS011;25829;50.228;18.936;2023-07-31T15:11:31;4.75;;;1.40;;
40116;SDS011;25829;50.228;18.936;2023-07-31T15:14:31;8.82;;;1.80;;
40116;SDS011;25829;50.228;18.936;2023-07-31T15:17:32;2.13;;;1.58;;
40116;SDS011;25829;50.228;18.936;2023-07-31T15:20:33;2.17;;;1.63;;
40116;SDS011;25829;50.228;18.936;2023-07-31T15:23:34;6.15;;;1.65;;
40116;SDS011;25829;50.228;18.936;2023-07-31T15:26:36;2.50;;;1.35;;
40116;SDS011;25829;50.228;18.936;2023-07-31T15:29:37;3.03;;;1.30;;
40116;SDS011;25829;50.228;18.936;2023-07-31T15:32:38;2.30;;;1.48;;
40116;SDS011;25829;50.228;18.936;2023-07-31T15:35:39;4.47;;;1.30;;
40116;SDS011;25829;50.228;18.936;2023-07-31T15:38:41;5.10;;;2.13;;
40116;SDS011;25829;50.228;18.936;2023-07-31T15:41:41;4.07;;;1.30;;
40116;SDS011;25829;50.228;18.936;2023-07-31T15:44:42;3.00;;;1.30;;
40116;SDS011;25829;50.228;18.936;2023-07-31T15:47:43;3.83;;;1.60;;
40116;SDS011;25829;50.228;18.936;2023-07-31T15:50:44;2.15;;;1.05;;
40116;SDS011;25829;50.228;18.936;2023-07-31T15:53:47;3.20;;;1.45;;
40116;SDS011;25829;50.228;18.936;2023-07-31T16:00:50;2.30;;;1.60;;
40116;SDS011;25829;50.228;18.936;2023-07-31T16:03:50;1.65;;;1.30;;
40116;SDS011;25829;50.228;18.936;2023-07-31T16:06:52;2.58;;;1.70;;
40116;SDS011;25829;50.228;18.936;2023-07-31T16:30:51;2.90;;;1.92;;
40116;SDS011;25829;50.228;18.936;2023-07-31T16:33:59;3.00;;;2.22;;
40116;SDS011;25829;50.228;18.936;2023-07-31T16:36:59;2.38;;;1.90;;
40116;SDS011;25829;50.228;18.936;2023-07-31T16:40:00;3.17;;;1.60;;
40116;SDS011;25829;50.228;18.936;2023-07-31T16:43:01;3.10;;;1.50;;
40116;SDS011;25829;50.228;18.936;2023-07-31T16:46:02;1.83;;;1.40;;
40116;SDS011;25829;50.228;18.936;2023-07-31T16:49:02;4.50;;;1.63;;
40116;SDS011;25829;50.228;18.936;2023-07-31T16:52:04;2.53;;;1.58;;
40116;SDS011;25829;50.228;18.936;2023-07-31T16:55:05;2.22;;;1.83;;
40116;SDS011;25829;50.228;18.936;2023-07-31T16:58:06;2.28;;;1.58;;
40116;SDS011;25829;50.228;18.936;2023-07-31T17:01:09;2.97;;;1.48;;
40116;SDS011;25829;50.228;18.936;2023-07-31T17:04:10;2.53;;;1.50;;
40116;SDS011;25829;50.228;18.936;2023-07-31T17:07:11;2.83;;;1.48;;
40116;SDS011;25829;50.228;18.936;2023-07-31T17:10:13;7.28;;;1.60;;
40116;SDS011;25829;50.228;18.936;2023-07-31T17:13:14;3.83;;;1.50;;
40116;SDS011;25829;50.228;18.936;2023-07-31T17:16:15;3.42;;;1.67;;
40116;SDS011;25829;50.228;18.936;2023-07-31T17:19:16;5.30;;;1.70;;
40116;SDS011;25829;50.228;18.936;2023-07-31T17:22:17;8.15;;;2.67;;
40116;SDS011;25829;50.228;18.936;2023-07-31T17:25:17;5.93;;;1.63;;
40116;SDS011;25829;50.228;18.936;2023-07-31T17:32:02;4.65;;;2.00;;
40116;SDS011;25829;50.228;18.936;2023-07-31T17:35:03;3.63;;;1.80;;
40116;SDS011;25829;50.228;18.936;2023-07-31T17:38:04;3.17;;;1.70;;
40116;SDS011;25829;50.228;18.936;2023-07-31T17:41:04;1.90;;;1.30;;
40116;SDS011;25829;50.228;18.936;2023-07-31T17:44:05;2.53;;;1.70;;
40116;SDS011;25829;50.228;18.936;2023-07-31T17:47:06;3.83;;;1.92;;
40116;SDS011;25829;50.228;18.936;2023-07-31T17:50:07;2.78;;;1.60;;
40116;SDS011;25829;50.228;18.936;2023-07-31T17:53:09;4.40;;;1.58;;
40116;SDS011;25829;50.228;18.936;2023-07-31T17:56:09;2.35;;;1.73;;
40116;SDS011;25829;50.228;18.936;2023-07-31T17:59:10;3.45;;;1.77;;
40116;SDS011;25829;50.228;18.936;2023-07-31T18:02:12;2.42;;;1.80;;
40116;SDS011;25829;50.228;18.936;2023-07-31T18:05:13;2.25;;;1.70;;
40116;SDS011;25829;50.228;18.936;2023-07-31T18:08:13;4.57;;;1.80;;
40116;SDS011;25829;50.228;18.936;2023-07-31T18:11:14;2.58;;;1.80;;
40116;SDS011;25829;50.228;18.936;2023-07-31T18:14:15;4.53;;;1.80;;
40116;SDS011;25829;50.228;18.936;2023-07-31T18:17:16;4.80;;;1.83;;
40116;SDS011;25829;50.228;18.936;2023-07-31T18:20:17;1.95;;;1.58;;
40116;SDS011;25829;50.228;18.936;2023-07-31T18:23:19;4.32;;;1.70;;
40116;SDS011;25829;50.228;18.936;2023-07-31T18:26:20;5.22;;;2.10;;
40116;SDS011;25829;50.228;18.936;2023-07-31T18:29:21;2.95;;;1.77;;
40116;SDS011;25829;50.228;18.936;2023-07-31T18:32:21;5.63;;;2.00;;
40116;SDS011;25829;50.228;18.936;2023-07-31T18:35:22;2.15;;;1.83;;
40116;SDS011;25829;50.228;18.936;2023-07-31T18:38:24;4.15;;;1.95;;
40116;SDS011;25829;50.228;18.936;2023-07-31T18:41:25;3.45;;;2.17;;
40116;SDS011;25829;50.228;18.936;2023-07-31T18:44:26;5.90;;;2.10;;
40116;SDS011;25829;50.228;18.936;2023-07-31T18:47:27;2.55;;;1.85;;
40116;SDS011;25829;50.228;18.936;2023-07-31T18:50:27;2.30;;;2.00;;
40116;SDS011;25829;50.228;18.936;2023-07-31T18:53:28;6.60;;;2.35;;
40116;SDS011;25829;50.228;18.936;2023-07-31T18:56:29;2.83;;;1.90;;
40116;SDS011;25829;50.228;18.936;2023-07-31T18:59:30;2.55;;;2.33;;
40116;SDS011;25829;50.228;18.936;2023-07-31T19:02:31;3.33;;;2.17;;
40116;SDS011;25829;50.228;18.936;2023-07-31T19:05:31;6.43;;;2.60;;
40116;SDS011;25829;50.228;18.936;2023-07-31T19:08:32;5.80;;;2.40;;
40116;SDS011;25829;50.228;18.936;2023-07-31T19:11:35;3.20;;;2.60;;
40116;SDS011;25829;50.228;18.936;2023-07-31T19:14:36;3.88;;;2.55;;
40116;SDS011;25829;50.228;18.936;2023-07-31T19:17:37;2.65;;;1.90;;
40116;SDS011;25829;50.228;18.936;2023-07-31T19:20:38;2.88;;;2.10;;
40116;SDS011;25829;50.228;18.936;2023-07-31T19:23:39;4.90;;;2.40;;
40116;SDS011;25829;50.228;18.936;2023-07-31T19:26:40;5.03;;;2.33;;
40116;SDS011;25829;50.228;18.936;2023-07-31T19:29:44;3.70;;;2.13;;
40116;SDS011;25829;50.228;18.936;2023-07-31T19:32:45;3.50;;;2.70;;
40116;SDS011;25829;50.228;18.936;2023-07-31T19:35:58;5.00;;;2.63;;
40116;SDS011;25829;50.228;18.936;2023-07-31T19:39:00;3.00;;;2.38;;
40116;SDS011;25829;50.228;18.936;2023-07-31T19:42:01;4.47;;;2.50;;
40116;SDS011;25829;50.228;18.936;2023-07-31T19:45:05;3.85;;;2.53;;
40116;SDS011;25829;50.228;18.936;2023-07-31T19:48:06;6.05;;;2.58;;
40116;SDS011;25829;50.228;18.936;2023-07-31T19:51:13;2.75;;;2.22;;
40116;SDS011;25829;50.228;18.936;2023-07-31T19:54:15;4.82;;;2.78;;
40116;SDS011;25829;50.228;18.936;2023-07-31T19:57:16;5.00;;;2.92;;
40116;SDS011;25829;50.228;18.936;2023-07-31T20:00:17;4.72;;;3.00;;
40116;SDS011;25829;50.228;18.936;2023-07-31T20:03:18;5.03;;;3.13;;
40116;SDS011;25829;50.228;18.936;2023-07-31T20:06:19;5.53;;;2.97;;
40116;SDS011;25829;50.228;18.936;2023-07-31T20:09:19;3.92;;;2.47;;
40116;SDS011;25829;50.228;18.936;2023-07-31T20:12:21;5.70;;;2.60;;
40116;SDS011;25829;50.228;18.936;2023-07-31T20:15:22;4.03;;;2.78;;
40116;SDS011;25829;50.228;18.936;2023-07-31T20:18:23;4.32;;;2.40;;
40116;SDS011;25829;50.228;18.936;2023-07-31T20:21:24;3.17;;;2.35;;
40116;SDS011;25829;50.228;18.936;2023-07-31T20:24:25;5.32;;;2.95;;
40116;SDS011;25829;50.228;18.936;2023-07-31T20:27:25;3.65;;;2.58;;
40116;SDS011;25829;50.228;18.936;2023-07-31T20:30:26;4.40;;;2.92;;
40116;SDS011;25829;50.228;18.936;2023-07-31T20:33:27;2.58;;;2.38;;
40116;SDS011;25829;50.228;18.936;2023-07-31T20:36:28;6.07;;;3.53;;
40116;SDS011;25829;50.228;18.936;2023-07-31T20:46:30;7.30;;;2.95;;
40116;SDS011;25829;50.228;18.936;2023-07-31T20:49:31;8.07;;;3.88;;
40116;SDS011;25829;50.228;18.936;2023-07-31T20:55:42;6.75;;;3.15;;
40116;SDS011;25829;50.228;18.936;2023-07-31T20:58:42;4.88;;;3.25;;
40116;SDS011;25829;50.228;18.936;2023-07-31T21:01:43;5.47;;;3.28;;
40116;SDS011;25829;50.228;18.936;2023-07-31T21:04:44;5.60;;;3.33;;
40116;SDS011;25829;50.228;18.936;2023-07-31T21:07:45;6.10;;;3.03;;
40116;SDS011;25829;50.228;18.936;2023-07-31T21:10:49;4.88;;;3.25;;
40116;SDS011;25829;50.228;18.936;2023-07-31T21:13:50;5.22;;;3.33;;
40116;SDS011;25829;50.228;18.936;2023-07-31T21:16:51;4.72;;;3.40;;
40116;SDS011;25829;50.228;18.936;2023-07-31T21:19:52;6.72;;;3.25;;
40116;SDS011;25829;50.228;18.936;2023-07-31T21:22:53;6.15;;;3.28;;
40116;SDS011;25829;50.228;18.936;2023-07-31T21:25:53;5.28;;;3.60;;
40116;SDS011;25829;50.228;18.936;2023-07-31T21:28:54;4.82;;;3.47;;
40116;SDS011;25829;50.228;18.936;2023-07-31T21:31:55;7.45;;;3.90;;
40116;SDS011;25829;50.228;18.936;2023-07-31T21:34:55;5.60;;;4.03;;
40116;SDS011;25829;50.228;18.936;2023-07-31T21:37:57;7.95;;;3.92;;
40116;SDS011;25829;50.228;18.936;2023-07-31T21:40:58;7.95;;;4.75;;
40116;SDS011;25829;50.228;18.936;2023-07-31T21:43:59;6.00;;;4.38;;
40116;SDS011;25829;50.228;18.936;2023-07-31T21:47:00;5.35;;;4.28;;
40116;SDS011;25829;50.228;18.936;2023-07-31T21:50:01;5.88;;;4.38;;
40116;SDS011;25829;50.228;18.936;2023-07-31T21:53:02;6.63;;;3.92;;
40116;SDS011;25829;50.228;18.936;2023-07-31T21:56:03;7.53;;;4.55;;
40116;SDS011;25829;50.228;18.936;2023-07-31T21:59:04;4.97;;;4.13;;
40116;SDS011;25829;50.228;18.936;2023-07-31T22:02:05;6.40;;;4.45;;
40116;SDS011;25829;50.228;18.936;2023-07-31T22:05:08;7.03;;;4.18;;
40116;SDS011;25829;50.228;18.936;2023-07-31T22:08:09;8.02;;;5.03;;
40116;SDS011;25829;50.228;18.936;2023-07-31T22:11:09;7.47;;;4.30;;
40116;SDS011;25829;50.228;18.936;2023-07-31T22:14:10;7.80;;;4.80;;
40116;SDS011;25829;50.228;18.936;2023-07-31T22:17:11;12.50;;;5.18;;
40116;SDS011;25829;50.228;18.936;2023-07-31T22:20:12;7.93;;;5.57;;